Time;durP1;ratioP1;P1;durP2;ratioP2;P2;SDS_P1;SDS_P2;PMS_P1;PMS_P2;Temp;Humidity;BMP_temperature;BMP_pressure;BME280_temperature;BME280_humidity;BME280_pressure;Samples;Min_cycle;Max_cycle;Signal;HPM_P1;HPM_P2
2022/08/15 00:01:59;;;;;;;1.63;1.40;;;26.00;96.70;;;;;;4965189;28;20540;-78
2022/08/15 00:04:27;;;;;;;2.30;1.60;;;26.00;96.70;;;;;;4961889;28;20134;-78
2022/08/15 00:07:01;;;;;;;2.95;1.50;;;26.10;96.70;;;;;;4953763;28;20079;-77
2022/08/15 00:09:29;;;;;;;1.80;1.50;;;26.20;96.70;;;;;;4957111;28;20517;-78
2022/08/15 00:12:22;;;;;;;3.08;1.30;;;26.30;96.70;;;;;;4958506;28;20047;-78
2022/08/15 00:15:05;;;;;;;2.95;1.60;;;26.30;96.70;;;;;;4961239;28;20493;-78
2022/08/15 00:17:36;;;;;;;1.67;1.52;;;26.20;96.70;;;;;;4965883;28;20046;-78
2022/08/15 00:20:17;;;;;;;3.20;1.45;;;26.20;96.70;;;;;;4965109;28;20050;-78
2022/08/15 00:22:59;;;;;;;2.80;1.58;;;26.20;96.70;;;;;;4965311;28;20046;-79
2022/08/15 00:25:29;;;;;;;2.42;1.80;;;26.20;96.70;;;;;;4957309;28;20051;-78
2022/08/15 00:28:05;;;;;;;2.85;1.70;;;26.00;96.70;;;;;;4964088;28;20457;-78
2022/08/15 00:30:40;;;;;;;2.30;1.40;;;25.90;96.70;;;;;;4960346;28;20493;-78
2022/08/15 00:33:27;;;;;;;3.83;1.85;;;25.90;96.70;;;;;;4956065;28;20078;-77
2022/08/15 00:35:56;;;;;;;2.45;1.50;;;25.80;96.70;;;;;;4964680;28;20247;-78
2022/08/15 00:38:45;;;;;;;3.90;1.42;;;25.80;96.70;;;;;;4960005;28;20587;-78
2022/08/15 00:44:09;;;;;;;2.30;1.50;;;25.90;96.70;;;;;;4962763;28;20153;-78
2022/08/15 00:46:43;;;;;;;2.47;1.70;;;25.70;96.70;;;;;;4963994;28;20043;-79
2022/08/15 00:49:12;;;;;;;1.83;1.40;;;25.70;96.70;;;;;;4957410;28;20141;-78
2022/08/15 00:51:48;;;;;;;1.67;1.58;;;25.70;96.70;;;;;;4962563;28;20101;-78
2022/08/15 00:54:28;;;;;;;3.35;2.00;;;25.60;96.70;;;;;;4965984;28;20133;-77
2022/08/15 00:57:20;;;;;;;1.90;1.58;;;25.70;96.70;;;;;;4956025;28;20505;-78
2022/08/15 01:00:15;;;;;;;3.30;1.90;;;25.70;96.70;;;;;;4949849;28;20047;-77
2022/08/15 01:03:05;;;;;;;3.03;1.63;;;25.70;96.70;;;;;;4956930;28;20055;-78
2022/08/15 01:05:42;;;;;;;1.98;1.75;;;25.60;96.70;;;;;;4950295;28;20468;-77
2022/08/15 01:08:16;;;;;;;2.75;1.83;;;25.60;96.70;;;;;;4945874;28;20076;-78
2022/08/15 01:10:47;;;;;;;4.07;1.60;;;25.60;96.70;;;;;;4959902;28;20146;-78
2022/08/15 01:13:28;;;;;;;1.85;1.73;;;25.50;96.70;;;;;;4950116;28;20058;-78
2022/08/15 01:16:19;;;;;;;2.85;1.65;;;25.50;96.70;;;;;;4959928;28;20130;-79
2022/08/15 01:19:07;;;;;;;4.05;1.63;;;25.40;96.70;;;;;;4963323;28;20050;-78
2022/08/15 01:21:55;;;;;;;1.57;1.47;;;25.40;96.70;;;;;;4947094;28;20066;-79
2022/08/15 01:24:54;;;;;;;3.35;1.88;;;25.50;96.70;;;;;;4957363;28;20487;-78
2022/08/15 01:27:47;;;;;;;1.70;1.48;;;25.40;96.70;;;;;;4958079;28;20034;-78
2022/08/15 01:30:23;;;;;;;3.25;1.60;;;25.20;96.70;;;;;;4949858;28;20057;-79
2022/08/15 01:33:13;;;;;;;4.60;1.83;;;25.20;96.70;;;;;;4963260;28;20046;-79
2022/08/15 01:35:46;;;;;;;3.38;2.25;;;25.10;96.70;;;;;;4959494;28;20141;-78
2022/08/15 01:38:26;;;;;;;1.58;1.48;;;25.10;96.70;;;;;;4946527;28;20055;-78
2022/08/15 01:41:21;;;;;;;2.70;1.65;;;25.00;96.70;;;;;;4964185;28;20047;-79
2022/08/15 01:43:59;;;;;;;2.08;1.50;;;25.00;96.70;;;;;;4945362;28;20063;-79
2022/08/15 01:46:54;;;;;;;2.20;1.63;;;24.90;96.70;;;;;;4963386;28;20058;-78
2022/08/15 01:49:36;;;;;;;1.95;1.60;;;25.10;96.70;;;;;;4947594;28;20090;-77
2022/08/15 01:52:13;;;;;;;1.65;1.55;;;25.20;96.70;;;;;;4969140;28;20551;-78
2022/08/15 01:55:05;;;;;;;1.95;1.48;;;25.20;96.70;;;;;;4955802;28;20047;-78
2022/08/15 01:57:36;;;;;;;2.30;1.52;;;25.20;96.70;;;;;;4946207;28;20576;-77
2022/08/15 02:00:08;;;;;;;3.38;1.73;;;25.10;96.70;;;;;;4961208;28;20098;-78
2022/08/15 02:02:46;;;;;;;2.35;1.67;;;25.10;96.70;;;;;;4955216;28;20046;-78
2022/08/15 02:05:14;;;;;;;1.55;1.45;;;25.00;96.70;;;;;;4945580;28;20063;-79
2022/08/15 02:07:44;;;;;;;2.22;1.67;;;25.00;96.70;;;;;;4961661;28;20130;-78
2022/08/15 02:10:33;;;;;;;4.03;1.83;;;24.90;96.70;;;;;;4958974;28;20058;-78
2022/08/15 02:13:05;;;;;;;2.08;1.63;;;24.90;96.70;;;;;;4956209;28;20050;-78
2022/08/15 02:15:42;;;;;;;2.08;1.88;;;24.90;96.70;;;;;;4958605;28;20053;-78
2022/08/15 02:18:11;;;;;;;3.10;1.63;;;24.90;96.70;;;;;;4965030;28;20050;-79
2022/08/15 02:20:50;;;;;;;2.10;1.77;;;24.90;96.70;;;;;;4957591;28;20083;-77
2022/08/15 02:23:19;;;;;;;1.35;1.23;;;24.70;96.70;;;;;;4959937;28;20046;-78
2022/08/15 02:25:50;;;;;;;1.73;1.63;;;24.70;96.70;;;;;;4957642;28;20071;-78
2022/08/15 02:28:24;;;;;;;2.55;1.60;;;24.70;96.70;;;;;;4962247;28;20050;-79
2022/08/15 02:31:09;;;;;;;1.90;1.38;;;24.40;96.70;;;;;;4962889;28;20050;-79
2022/08/15 02:33:38;;;;;;;2.50;1.30;;;24.40;96.70;;;;;;4959650;28;20032;-78
2022/08/15 02:36:16;;;;;;;1.30;1.17;;;24.50;96.70;;;;;;4955462;28;20576;-79
2022/08/15 02:39:03;;;;;;;3.22;1.42;;;24.50;96.70;;;;;;4961110;28;20113;-78
2022/08/15 02:41:34;;;;;;;1.50;1.40;;;24.50;96.70;;;;;;4945657;28;21637;-78
2022/08/15 02:44:15;;;;;;;3.60;1.48;;;24.40;96.70;;;;;;4961279;28;20154;-78
2022/08/15 02:46:59;;;;;;;2.08;1.70;;;24.40;96.70;;;;;;4948368;28;20420;-78
2022/08/15 02:49:36;;;;;;;1.48;1.38;;;24.30;96.70;;;;;;4960128;28;20148;-78
2022/08/15 02:52:18;;;;;;;1.58;1.45;;;24.30;96.70;;;;;;4961061;28;20049;-78
2022/08/15 02:54:47;;;;;;;1.85;1.70;;;24.40;96.70;;;;;;4963188;28;20381;-78
2022/08/15 02:57:28;;;;;;;3.65;1.88;;;24.40;96.70;;;;;;4964288;28;20051;-78
2022/08/15 02:59:57;;;;;;;3.63;1.77;;;24.30;96.70;;;;;;4948727;28;20139;-78
2022/08/15 03:02:46;;;;;;;1.88;1.60;;;24.20;96.70;;;;;;4958611;28;20043;-78
2022/08/15 03:05:16;;;;;;;1.52;1.40;;;24.20;96.70;;;;;;4949113;28;20138;-79
2022/08/15 03:07:44;;;;;;;2.35;1.60;;;24.10;96.70;;;;;;4958979;28;20047;-79
2022/08/15 03:10:12;;;;;;;1.73;1.50;;;24.10;96.70;;;;;;4948157;28;20058;-78
2022/08/15 03:12:59;;;;;;;2.28;1.58;;;24.00;96.70;;;;;;4951280;28;20050;-79
2022/08/15 03:15:37;;;;;;;2.45;2.00;;;24.10;96.70;;;;;;4948996;28;20055;-79
2022/08/15 03:18:08;;;;;;;2.40;1.90;;;24.20;96.70;;;;;;4945337;28;20106;-79
2022/08/15 03:20:40;;;;;;;2.08;1.90;;;24.00;96.70;;;;;;4961217;28;20053;-79
2022/08/15 03:23:16;;;;;;;3.50;1.70;;;23.90;96.70;;;;;;4962506;28;20655;-79
2022/08/15 03:25:48;;;;;;;2.85;1.60;;;23.90;96.70;;;;;;4962488;28;20042;-78
2022/08/15 03:28:28;;;;;;;2.60;1.77;;;24.00;96.70;;;;;;4965609;28;20086;-79
2022/08/15 03:31:04;;;;;;;2.65;1.85;;;24.00;96.70;;;;;;4949800;28;20042;-79
2022/08/15 03:33:36;;;;;;;2.70;1.83;;;23.90;96.70;;;;;;4940250;28;20057;-78
2022/08/15 03:36:24;;;;;;;2.25;1.58;;;23.80;96.70;;;;;;4944421;28;20046;-79
2022/08/15 03:38:59;;;;;;;2.20;1.73;;;23.80;96.70;;;;;;4949556;28;20047;-79
2022/08/15 03:41:28;;;;;;;1.77;1.60;;;23.90;96.70;;;;;;4962741;28;20066;-78
2022/08/15 03:43:56;;;;;;;1.50;1.40;;;23.90;96.70;;;;;;4962916;28;20456;-79
2022/08/15 03:46:26;;;;;;;1.73;1.63;;;23.70;96.70;;;;;;4964673;28;20552;-80
2022/08/15 03:48:56;;;;;;;2.38;1.20;;;23.80;96.70;;;;;;4965812;28;20117;-79
2022/08/15 03:51:31;;;;;;;2.00;1.77;;;23.70;96.70;;;;;;4958490;28;20078;-79
2022/08/15 03:54:05;;;;;;;2.72;1.50;;;23.70;96.70;;;;;;4974557;28;20048;-79
2022/08/15 03:56:54;;;;;;;2.75;1.70;;;23.80;96.70;;;;;;4948679;28;20047;-78
2022/08/15 03:59:22;;;;;;;3.10;1.80;;;23.70;96.70;;;;;;4964784;28;20050;-79
2022/08/15 04:01:55;;;;;;;1.50;1.40;;;23.60;96.70;;;;;;4946596;28;20476;-78
2022/08/15 04:04:28;;;;;;;3.17;1.63;;;23.60;96.70;;;;;;4950494;28;20055;-79
2022/08/15 04:06:56;;;;;;;2.72;1.70;;;23.70;96.70;;;;;;4963806;28;20043;-79
2022/08/15 04:09:38;;;;;;;1.73;1.50;;;23.80;96.70;;;;;;4959081;28;20058;-79
2022/08/15 04:12:12;;;;;;;2.00;1.80;;;23.70;96.70;;;;;;4947771;28;20065;-78
2022/08/15 04:14:53;;;;;;;2.03;1.83;;;23.60;96.70;;;;;;4960560;28;20050;-79
2022/08/15 04:17:23;;;;;;;2.10;1.65;;;23.50;96.70;;;;;;4959494;28;20142;-78
2022/08/15 04:20:12;;;;;;;2.22;1.60;;;23.40;96.70;;;;;;4961218;28;20070;-78
2022/08/15 04:23:03;;;;;;;1.80;1.70;;;23.40;96.70;;;;;;4960097;28;20441;-79
2022/08/15 04:25:38;;;;;;;4.43;2.00;;;23.40;96.70;;;;;;4948671;28;20046;-78
2022/08/15 04:28:23;;;;;;;2.78;1.80;;;23.40;96.70;;;;;;4958766;28;20051;-79
2022/08/15 04:31:12;;;;;;;2.55;1.80;;;23.40;96.70;;;;;;4962805;28;20235;-79
2022/08/15 04:33:45;;;;;;;2.95;1.80;;;23.40;96.70;;;;;;4956358;28;20047;-79
2022/08/15 04:36:33;;;;;;;2.55;1.73;;;23.30;96.70;;;;;;4978099;28;20122;-78
2022/08/15 04:39:03;;;;;;;3.35;1.65;;;23.40;96.70;;;;;;4958481;28;20077;-79
2022/08/15 04:41:42;;;;;;;3.70;1.98;;;23.30;96.70;;;;;;4973015;28;20059;-78
2022/08/15 04:44:20;;;;;;;2.38;1.90;;;23.40;96.70;;;;;;4955358;28;20071;-79
2022/08/15 04:46:56;;;;;;;2.17;1.90;;;23.40;96.70;;;;;;4949723;28;20456;-79
2022/08/15 04:49:26;;;;;;;2.60;1.75;;;23.40;96.70;;;;;;4963727;28;20444;-82
2022/08/15 04:51:54;;;;;;;1.80;1.70;;;23.40;96.70;;;;;;4967110;28;20129;-81
2022/08/15 04:54:25;;;;;;;3.53;1.85;;;23.50;96.70;;;;;;4963450;28;20062;-81
2022/08/15 04:57:09;;;;;;;2.58;1.55;;;23.50;96.70;;;;;;4953703;28;20055;-82
2022/08/15 04:59:44;;;;;;;2.90;1.95;;;23.40;96.70;;;;;;4959485;28;20097;-82
2022/08/15 05:02:42;;;;;;;3.63;1.65;;;23.50;96.70;;;;;;4962167;28;20039;-82
2022/08/15 05:05:26;;;;;;;2.00;1.90;;;23.60;96.70;;;;;;4964034;28;20050;-82
2022/08/15 05:08:05;;;;;;;2.30;1.88;;;23.60;96.70;;;;;;4961166;28;20047;-82
2022/08/15 05:10:41;;;;;;;;;;;23.60;96.70;;;;;;4959797;28;20066;-82
2022/08/15 05:13:13;;;;;;;2.75;1.85;;;23.70;96.70;;;;;;4962990;28;20389;-82
2022/08/15 05:15:42;;;;;;;3.05;1.95;;;23.80;96.70;;;;;;4953630;28;20514;-81
2022/08/15 05:18:22;;;;;;;1.95;1.77;;;23.70;96.70;;;;;;4966471;28;20047;-82
2022/08/15 05:20:53;;;;;;;3.65;2.15;;;23.70;96.70;;;;;;4954836;28;20050;-82
2022/08/15 05:23:22;;;;;;;2.70;2.35;;;23.60;96.70;;;;;;4959336;28;20077;-82
2022/08/15 05:26:04;;;;;;;2.95;2.22;;;23.60;96.70;;;;;;4959842;28;20047;-82
2022/08/15 05:28:52;;;;;;;2.25;2.05;;;23.40;96.70;;;;;;4968024;28;20174;-82
2022/08/15 05:31:27;;;;;;;2.70;1.98;;;23.50;96.70;;;;;;4950597;28;20516;-83
2022/08/15 05:34:03;;;;;;;2.90;2.10;;;23.70;96.70;;;;;;4966168;28;20149;-82
2022/08/15 05:36:41;;;;;;;3.42;1.90;;;23.60;96.70;;;;;;4959849;28;20049;-83
2022/08/15 05:39:18;;;;;;;1.95;1.80;;;23.70;96.70;;;;;;4964906;28;20051;-82
2022/08/15 05:41:58;;;;;;;3.50;2.00;;;23.70;96.70;;;;;;4954633;28;20064;-83
2022/08/15 05:44:34;;;;;;;3.60;3.03;;;23.70;96.70;;;;;;4966829;28;20060;-83
2022/08/15 05:47:23;;;;;;;2.72;2.28;;;23.70;96.70;;;;;;4958420;28;20059;-83
2022/08/15 05:49:54;;;;;;;2.65;2.45;;;23.80;96.70;;;;;;4965015;28;20094;-83
2022/08/15 05:52:43;;;;;;;2.70;2.42;;;23.80;96.70;;;;;;4948406;28;20051;-83
2022/08/15 05:55:21;;;;;;;2.33;2.13;;;23.90;96.70;;;;;;4943179;28;20047;-83
2022/08/15 05:58:13;;;;;;;4.63;2.00;;;23.90;96.70;;;;;;4946062;28;20059;-83
2022/08/15 06:01:09;;;;;;;2.90;2.10;;;24.00;96.70;;;;;;4954812;28;20806;-83
2022/08/15 06:03:48;;;;;;;2.25;2.05;;;24.00;96.70;;;;;;4938480;29;20103;-82
2022/08/15 06:06:21;;;;;;;3.85;1.80;;;24.00;96.70;;;;;;4945794;29;20053;-82
2022/08/15 06:09:04;;;;;;;1.92;1.80;;;24.10;96.70;;;;;;4935645;28;20406;-83
2022/08/15 06:11:37;;;;;;;2.30;2.10;;;24.10;96.70;;;;;;4938381;29;20047;-82
2022/08/15 06:14:17;;;;;;;4.25;1.92;;;24.20;96.70;;;;;;4960197;28;20039;-82
2022/08/15 06:16:52;;;;;;;3.22;1.73;;;24.20;96.70;;;;;;4966027;28;20098;-82
2022/08/15 06:19:27;;;;;;;2.38;1.75;;;24.30;96.70;;;;;;4957861;28;20289;-83
2022/08/15 06:22:20;;;;;;;3.22;1.95;;;24.30;96.70;;;;;;4939716;28;20515;-82
2022/08/15 06:25:05;;;;;;;2.97;1.80;;;24.30;96.70;;;;;;4975573;28;20175;-83
2022/08/15 06:27:45;;;;;;;3.17;1.90;;;24.40;96.70;;;;;;4955002;28;20054;-81
2022/08/15 06:30:19;;;;;;;2.05;1.85;;;24.50;96.70;;;;;;4968996;28;20051;-83
2022/08/15 06:32:56;;;;;;;2.70;1.85;;;24.50;96.70;;;;;;4963047;28;20047;-82
2022/08/15 06:35:35;;;;;;;2.45;1.77;;;24.60;96.70;;;;;;4967013;28;20170;-83
2022/08/15 06:38:14;;;;;;;2.13;1.60;;;24.70;96.70;;;;;;4968897;28;20058;-83
2022/08/15 06:41:14;;;;;;;2.95;2.13;;;24.80;96.70;;;;;;4964187;28;20511;-83
2022/08/15 06:43:45;;;;;;;3.22;2.17;;;25.00;96.70;;;;;;4952425;28;20536;-83
2022/08/15 06:46:27;;;;;;;4.63;2.15;;;25.00;96.70;;;;;;4952432;28;20571;-82
2022/08/15 06:49:19;;;;;;;7.28;2.20;;;25.20;96.70;;;;;;4965072;28;20149;-83
2022/08/15 06:51:52;;;;;;;2.08;1.90;;;25.30;96.70;;;;;;4964576;28;20264;-83
2022/08/15 06:54:24;;;;;;;2.53;2.00;;;25.60;96.70;;;;;;4966704;28;20074;-83
2022/08/15 06:57:41;;;;;;;3.20;1.83;;;25.50;96.70;;;;;;4969449;28;20046;-83
2022/08/15 07:00:16;;;;;;;3.30;1.90;;;25.60;96.70;;;;;;4951696;28;20038;-83
2022/08/15 07:03:19;;;;;;;2.72;2.10;;;25.60;96.70;;;;;;4963402;28;20142;-83
2022/08/15 07:05:55;;;;;;;2.22;1.80;;;25.60;96.70;;;;;;4959769;28;20602;-82
2022/08/15 07:08:32;;;;;;;3.55;2.10;;;25.60;96.70;;;;;;4962066;28;20047;-82
2022/08/15 07:11:09;;;;;;;2.40;1.80;;;25.80;96.70;;;;;;4969064;28;20066;-82
2022/08/15 07:14:02;;;;;;;3.25;2.78;;;25.80;96.70;;;;;;4963121;28;20138;-83
2022/08/15 07:16:52;;;;;;;2.30;2.10;;;25.90;96.70;;;;;;4960818;28;20044;-83
2022/08/15 07:19:21;;;;;;;3.15;2.63;;;26.00;96.70;;;;;;4951775;28;20461;-82
2022/08/15 07:22:00;;;;;;;3.08;2.25;;;26.00;96.70;;;;;;4962974;28;20046;-82
2022/08/15 07:24:31;;;;;;;2.53;2.33;;;26.00;96.70;;;;;;4953412;28;20476;-83
2022/08/15 07:27:14;;;;;;;3.63;2.40;;;26.10;96.70;;;;;;4953902;28;20559;-83
2022/08/15 07:29:48;;;;;;;2.47;2.28;;;26.20;96.70;;;;;;4958777;28;20670;-82
2022/08/15 07:32:31;;;;;;;2.40;2.20;;;26.30;96.70;;;;;;4965240;28;20043;-83
2022/08/15 07:35:19;;;;;;;2.17;1.90;;;26.30;96.70;;;;;;4962196;28;20577;-83
2022/08/15 07:37:56;;;;;;;2.50;2.03;;;26.40;96.70;;;;;;4962710;28;20045;-83
2022/08/15 07:40:28;;;;;;;2.63;2.17;;;26.40;96.70;;;;;;4959969;28;20054;-82
2022/08/15 07:43:02;;;;;;;3.22;2.15;;;26.40;96.70;;;;;;4979646;28;20059;-82
2022/08/15 07:45:34;;;;;;;2.53;2.10;;;26.40;96.70;;;;;;4967225;28;20043;-83
2022/08/15 07:48:26;;;;;;;2.05;1.90;;;26.50;96.70;;;;;;4947749;28;20049;-82
2022/08/15 07:51:18;;;;;;;2.05;1.85;;;26.50;96.70;;;;;;4948685;28;20799;-83
2022/08/15 07:54:00;;;;;;;2.38;1.90;;;26.60;96.70;;;;;;4959001;28;20479;-83
2022/08/15 07:56:53;;;;;;;1.95;1.85;;;26.70;96.70;;;;;;4964430;28;20051;-83
2022/08/15 07:59:25;;;;;;;3.15;2.10;;;26.70;96.70;;;;;;4959953;28;20050;-83
2022/08/15 08:02:29;;;;;;;2.40;2.15;;;26.70;96.70;;;;;;4963974;28;20053;-84
2022/08/15 08:05:11;;;;;;;2.50;1.77;;;26.80;96.70;;;;;;4948126;28;20043;-82
2022/08/15 08:07:56;;;;;;;4.43;1.67;;;26.90;96.70;;;;;;4961138;28;20055;-82
2022/08/15 08:10:33;;;;;;;3.28;1.95;;;27.10;96.70;;;;;;4942460;29;20550;-83
2022/08/15 08:13:35;;;;;;;2.47;1.90;;;27.20;96.70;;;;;;4960055;28;20070;-83
2022/08/15 08:16:16;;;;;;;2.88;1.95;;;27.30;96.70;;;;;;4965312;28;20058;-82
2022/08/15 08:19:08;;;;;;;2.70;1.95;;;27.40;96.70;;;;;;4946454;28;20046;-83
2022/08/15 08:21:47;;;;;;;2.30;2.00;;;27.50;96.70;;;;;;4963782;28;20415;-83
2022/08/15 08:24:32;;;;;;;1.70;1.60;;;27.60;96.70;;;;;;4967742;28;20642;-83
2022/08/15 08:27:14;;;;;;;2.15;2.00;;;27.70;96.70;;;;;;4955996;28;20055;-82
2022/08/15 08:29:49;;;;;;;2.88;1.70;;;27.70;96.70;;;;;;4954343;28;20051;-84
2022/08/15 08:32:29;;;;;;;2.70;1.58;;;27.70;96.70;;;;;;4966107;28;20061;-82
2022/08/15 08:35:08;;;;;;;2.08;1.80;;;27.80;96.70;;;;;;4959080;28;20501;-83
2022/08/15 08:37:42;;;;;;;3.17;1.90;;;28.10;96.70;;;;;;4968974;28;20130;-83
2022/08/15 08:43:29;;;;;;;1.77;1.67;;;28.10;96.70;;;;;;4957694;28;20058;-83
2022/08/15 08:46:06;;;;;;;2.75;1.80;;;28.00;96.70;;;;;;4959031;28;20054;-84
2022/08/15 08:48:48;;;;;;;2.58;1.88;;;28.00;96.70;;;;;;4957415;28;20524;-84
2022/08/15 08:51:27;;;;;;;3.33;2.10;;;28.10;96.70;;;;;;4940171;28;20055;-83
2022/08/15 08:54:05;;;;;;;2.67;2.00;;;28.10;96.70;;;;;;4966862;28;20054;-84
2022/08/15 08:56:40;;;;;;;3.35;1.88;;;28.20;96.70;;;;;;4962864;28;20042;-83
2022/08/15 08:59:17;;;;;;;2.17;1.80;;;28.20;96.70;;;;;;4967189;28;20101;-83
2022/08/15 09:01:50;;;;;;;2.55;1.88;;;28.30;96.70;;;;;;4942057;28;20153;-83
2022/08/15 09:04:23;;;;;;;2.95;2.30;;;28.30;96.70;;;;;;4958353;28;20147;-83
2022/08/15 09:06:55;;;;;;;2.45;1.95;;;28.40;96.70;;;;;;4964860;28;20142;-84
2022/08/15 09:09:29;;;;;;;2.40;2.20;;;28.60;96.70;;;;;;4954096;28;20148;-84
2022/08/15 09:12:02;;;;;;;3.00;2.13;;;28.90;96.70;;;;;;4959716;28;20153;-84
2022/08/15 09:14:35;;;;;;;2.08;1.88;;;29.10;96.70;;;;;;4961987;28;20047;-84
2022/08/15 09:17:25;;;;;;;2.38;1.60;;;29.20;96.70;;;;;;4967933;28;20722;-84
2022/08/15 09:20:05;;;;;;;1.98;1.60;;;29.10;96.70;;;;;;4958925;28;20061;-85
2022/08/15 09:22:47;;;;;;;3.40;1.70;;;29.10;96.70;;;;;;4957273;28;20039;-84
2022/08/15 09:25:21;;;;;;;4.18;2.10;;;29.20;96.70;;;;;;4953458;28;20084;-84
2022/08/15 09:28:04;;;;;;;2.55;2.15;;;29.30;96.70;;;;;;4960910;28;20046;-83
2022/08/15 09:30:55;;;;;;;2.33;1.75;;;29.40;96.70;;;;;;4960781;28;20327;-85
2022/08/15 09:33:54;;;;;;;2.05;1.75;;;29.40;96.70;;;;;;4977040;28;20117;-84
2022/08/15 09:36:41;;;;;;;3.83;2.35;;;29.30;96.70;;;;;;4959033;28;20055;-83
2022/08/15 09:39:27;;;;;;;3.83;2.20;;;29.30;96.70;;;;;;4940178;28;20577;-84
2022/08/15 09:42:39;;;;;;;5.03;2.47;;;29.10;96.70;;;;;;4958047;28;20047;-83
2022/08/15 09:45:43;;;;;;;3.47;1.75;;;29.20;96.70;;;;;;4960187;28;20102;-84
2022/08/15 09:48:31;;;;;;;1.80;1.70;;;29.30;96.70;;;;;;4959295;28;20053;-84
2022/08/15 09:51:15;;;;;;;4.93;2.05;;;29.40;96.70;;;;;;4953183;28;20059;-84
2022/08/15 09:54:00;;;;;;;3.10;2.00;;;29.50;96.70;;;;;;4967045;28;20050;-84
2022/08/15 09:56:32;;;;;;;4.50;2.15;;;29.50;96.70;;;;;;4961171;28;20057;-84
2022/08/15 09:59:10;;;;;;;2.80;1.90;;;29.70;96.70;;;;;;4967207;28;20134;-84
2022/08/15 10:01:50;;;;;;;2.50;2.22;;;29.90;96.70;;;;;;4964909;28;20122;-84
2022/08/15 10:05:02;;;;;;;3.63;2.25;;;30.10;96.70;;;;;;4977217;28;20505;-84
2022/08/15 10:07:42;;;;;;;3.23;1.90;;;30.20;96.70;;;;;;4963784;28;20046;-84
2022/08/15 10:10:18;;;;;;;3.63;2.15;;;30.20;96.70;;;;;;4962044;28;20725;-84
2022/08/15 10:13:28;;;;;;;3.58;2.22;;;30.00;96.70;;;;;;4947502;28;20492;-84
2022/08/15 10:15:59;;;;;;;2.90;2.05;;;30.10;96.70;;;;;;4928711;28;20456;-84
2022/08/15 10:19:05;;;;;;;3.65;2.20;;;30.30;96.70;;;;;;4963684;28;20055;-83
2022/08/15 10:21:39;;;;;;;3.25;2.33;;;30.50;96.70;;;;;;4955651;28;20047;-84
2022/08/15 10:24:26;;;;;;;3.45;2.50;;;30.50;96.70;;;;;;4958564;28;20053;-85
2022/08/15 10:27:20;;;;;;;2.88;2.10;;;30.50;96.70;;;;;;4963453;28;20751;-85
2022/08/15 10:29:53;;;;;;;4.97;2.20;;;30.50;96.70;;;;;;4963645;28;20050;-84
2022/08/15 10:32:35;;;;;;;2.38;2.00;;;30.40;96.70;;;;;;4951589;28;20458;-84
2022/08/15 10:35:27;;;;;;;3.35;2.50;;;30.40;96.70;;;;;;4960966;28;20038;-84
2022/08/15 10:37:59;;;;;;;3.63;2.17;;;30.50;96.70;;;;;;4959137;28;21802;-84
2022/08/15 10:40:51;;;;;;;3.28;2.50;;;30.40;96.70;;;;;;4958438;28;20137;-84
2022/08/15 10:43:52;;;;;;;2.55;2.17;;;30.40;96.70;;;;;;4968218;28;20131;-83
2022/08/15 10:46:38;;;;;;;3.78;2.25;;;30.60;96.70;;;;;;4957477;28;20051;-84
2022/08/15 10:49:23;;;;;;;4.75;2.50;;;30.80;96.70;;;;;;4962989;28;20043;-84
2022/08/15 10:52:23;;;;;;;4.10;2.30;;;30.90;96.70;;;;;;4964382;28;20051;-83
2022/08/15 10:55:21;;;;;;;5.43;2.60;;;31.00;96.70;;;;;;4960360;28;20151;-85
2022/08/15 10:58:15;;;;;;;5.35;2.53;;;31.20;96.70;;;;;;4976224;28;20043;-85
2022/08/15 11:00:51;;;;;;;3.85;2.40;;;31.30;96.70;;;;;;4966895;28;20042;-84
2022/08/15 11:03:29;;;;;;;3.53;2.40;;;31.60;96.70;;;;;;4961360;28;20605;-84
2022/08/15 11:06:21;;;;;;;3.83;2.65;;;32.00;96.70;;;;;;4951539;28;20043;-85
2022/08/15 11:08:55;;;;;;;3.55;2.30;;;31.80;96.70;;;;;;4964588;28;20054;-85
2022/08/15 11:11:32;;;;;;;5.25;2.72;;;32.00;96.70;;;;;;4964964;28;20110;-84
2022/08/15 11:14:09;;;;;;;3.33;2.25;;;32.00;96.70;;;;;;4943909;28;20070;-84
2022/08/15 11:17:01;;;;;;;4.20;2.55;;;31.90;96.70;;;;;;4962206;28;20062;-84
2022/08/15 11:19:38;;;;;;;2.65;2.25;;;32.10;96.70;;;;;;4964427;28;20050;-84
2022/08/15 11:22:34;;;;;;;3.65;2.40;;;32.50;96.70;;;;;;4946582;28;20177;-85
2022/08/15 11:25:10;;;;;;;3.72;2.70;;;33.00;96.70;;;;;;4956587;28;20074;-84
2022/08/15 11:27:38;;;;;;;;;;;33.00;96.70;;;;;;4946074;28;20051;-84
2022/08/15 11:30:08;;;;;;;3.65;2.35;;;33.00;96.70;;;;;;4961869;28;19926;-85
2022/08/15 11:32:50;;;;;;;3.97;2.45;;;33.00;96.70;;;;;;4961366;28;20051;-84
2022/08/15 11:35:26;;;;;;;5.80;2.53;;;32.80;96.70;;;;;;4960599;28;20047;-84
2022/08/15 11:37:57;;;;;;;3.28;2.33;;;32.70;96.70;;;;;;4948205;28;20075;-84
2022/08/15 11:40:29;;;;;;;3.55;2.90;;;32.70;96.70;;;;;;4969321;28;20469;-85
2022/08/15 11:42:59;;;;;;;3.20;2.70;;;32.80;96.70;;;;;;4971088;28;20062;-83
2022/08/15 11:45:41;;;;;;;4.05;2.35;;;32.80;96.70;;;;;;4969716;28;20557;-85
2022/08/15 11:48:25;;;;;;;3.97;2.50;;;32.50;96.70;;;;;;4969402;28;20466;-85
2022/08/15 11:51:08;;;;;;;3.85;2.78;;;32.60;96.70;;;;;;4962385;28;20051;-84
2022/08/15 11:53:40;;;;;;;7.43;2.92;;;32.50;96.70;;;;;;4970952;28;20396;-85
2022/08/15 11:56:09;;;;;;;5.63;3.15;;;32.70;96.70;;;;;;4963481;28;20053;-85
2022/08/15 11:58:55;;;;;;;7.80;2.70;;;32.60;96.70;;;;;;4955144;28;20059;-85
2022/08/15 12:01:32;;;;;;;5.85;2.55;;;32.50;96.70;;;;;;4962604;28;20079;-84
2022/08/15 12:04:05;;;;;;;5.05;2.83;;;32.40;96.70;;;;;;4966285;28;20053;-84
2022/08/15 12:06:55;;;;;;;4.10;2.70;;;32.60;96.70;;;;;;4966331;28;20046;-84
2022/08/15 12:09:26;;;;;;;3.63;2.83;;;32.50;96.70;;;;;;4957306;28;20059;-84
2022/08/15 12:12:32;;;;;;;4.43;2.53;;;32.50;96.70;;;;;;4961671;28;20402;-84
2022/08/15 12:15:10;;;;;;;4.38;2.60;;;32.50;96.70;;;;;;4956407;28;20042;-85
2022/08/15 12:18:03;;;;;;;5.57;2.88;;;32.40;96.70;;;;;;4967246;28;20090;-84
2022/08/15 12:20:45;;;;;;;5.55;2.95;;;32.30;96.70;;;;;;4959133;28;20059;-83
2022/08/15 12:23:35;;;;;;;4.10;2.40;;;32.20;96.70;;;;;;4964179;28;20141;-83
2022/08/15 12:26:18;;;;;;;6.88;2.90;;;32.00;96.70;;;;;;4959361;28;20047;-84
2022/08/15 12:29:07;;;;;;;4.78;2.47;;;32.00;96.70;;;;;;4958795;28;20050;-84
2022/08/15 12:31:40;;;;;;;4.35;2.90;;;32.10;96.70;;;;;;4953295;28;20050;-84
2022/08/15 12:34:13;;;;;;;5.05;2.50;;;32.20;96.70;;;;;;4943062;28;20066;-83
2022/08/15 12:37:00;;;;;;;3.78;2.60;;;32.40;96.70;;;;;;4953033;28;20063;-85
2022/08/15 12:39:35;;;;;;;5.70;2.90;;;32.80;96.70;;;;;;4960011;28;20046;-84
2022/08/15 12:42:12;;;;;;;4.72;2.80;;;33.00;96.70;;;;;;4961712;28;20039;-85
2022/08/15 12:45:01;;;;;;;3.60;2.80;;;33.20;96.70;;;;;;4970560;28;20043;-84
2022/08/15 12:47:32;;;;;;;5.95;3.15;;;33.20;96.70;;;;;;4966356;28;20043;-84
2022/08/15 12:50:00;;;;;;;6.75;2.60;;;33.50;96.70;;;;;;4966282;28;20404;-85
2022/08/15 12:52:29;;;;;;;4.30;2.50;;;33.70;96.70;;;;;;4965061;28;20588;-85
2022/08/15 12:54:57;;;;;;;4.10;2.55;;;33.60;96.70;;;;;;4941691;28;20404;-85
2022/08/15 12:57:29;;;;;;;5.35;2.83;;;33.40;96.70;;;;;;4950465;28;20047;-84
2022/08/15 13:00:17;;;;;;;4.85;2.63;;;33.50;96.70;;;;;;4966027;28;20141;-83
2022/08/15 13:03:16;;;;;;;8.30;3.10;;;33.70;96.70;;;;;;4958853;28;20141;-84
2022/08/15 13:05:55;;;;;;;5.30;2.63;;;33.80;96.70;;;;;;4963599;28;20054;-85
2022/08/15 13:08:42;;;;;;;4.47;2.35;;;34.00;96.70;;;;;;4960019;28;20051;-82
2022/08/15 13:11:21;;;;;;;6.43;2.60;;;34.00;96.70;;;;;;4967235;28;20062;-83
2022/08/15 13:13:50;;;;;;;3.90;2.58;;;34.20;96.70;;;;;;4967721;28;20061;-85
2022/08/15 13:16:19;;;;;;;3.75;2.45;;;34.30;96.70;;;;;;4962711;28;20616;-83
2022/08/15 13:19:10;;;;;;;5.85;2.80;;;34.30;96.70;;;;;;4958738;28;20061;-85
2022/08/15 13:24:57;;;;;;;7.03;2.75;;;34.50;96.70;;;;;;4966795;28;20053;-85
2022/08/15 13:27:29;;;;;;;5.15;3.03;;;34.80;96.70;;;;;;4949886;28;20070;-85
2022/08/15 13:29:59;;;;;;;5.30;2.70;;;34.90;96.70;;;;;;4958519;28;20066;-84
2022/08/15 13:32:33;;;;;;;3.88;2.65;;;35.00;96.70;;;;;;4962732;28;20154;-84
2022/08/15 13:35:07;;;;;;;5.43;2.72;;;35.10;96.50;;;;;;4962016;28;20110;-84
2022/08/15 13:37:37;;;;;;;4.85;2.90;;;35.30;96.10;;;;;;4942319;28;20141;-84
2022/08/15 13:40:24;;;;;;;3.78;2.65;;;35.40;95.80;;;;;;4958010;28;20141;-85
2022/08/15 13:42:59;;;;;;;6.82;2.60;;;35.50;95.40;;;;;;4966358;28;20050;-85
2022/08/15 13:45:39;;;;;;;5.13;2.42;;;35.50;94.70;;;;;;4949851;28;20047;-84
2022/08/15 13:48:29;;;;;;;3.72;2.67;;;35.80;94.90;;;;;;4955498;28;20051;-85
2022/08/15 13:51:07;;;;;;;5.15;2.75;;;35.30;94.10;;;;;;4967552;28;20451;-86
2022/08/15 13:53:37;;;;;;;5.93;2.67;;;35.30;94.00;;;;;;4956770;28;20485;-84
2022/08/15 13:56:22;;;;;;;4.00;2.67;;;34.90;94.80;;;;;;4946838;29;20154;-85
2022/08/15 13:59:00;;;;;;;4.03;2.55;;;34.50;95.60;;;;;;4961562;28;20391;-85
2022/08/15 14:01:32;;;;;;;7.00;3.45;;;34.30;96.10;;;;;;4968326;28;20051;-84
2022/08/15 14:04:05;;;;;;;4.60;2.75;;;34.10;95.70;;;;;;4964972;28;20043;-85